Lucas Paul — WDJ6498 — position and weather

sailwx.info

Track history (hours):
 
Tides and Currents Weather Stations Pressure Air Temp Water Temp Dewpoint Dewpoint Depression Visibility Wind Speed Wind Dir Waves Ship Positions

Lucas Paul

Owner: Devall Towing Third Generation, sulphur, LA. More information available from US FCC via Universal Licensing System and Coast Guard Vessel Documentation Center.

Last reported at 2017-Oct-06 10:38 UTC. Time now 2017-Oct-19 14:41 UTC.
Position N 29°47' W 094°02'.
Warning: this ship's position is 13 days out of date.

Length 20 m.

Type: Towing. MMSI: 367798350.

Date/timePositionNaut miles runAvg speedWind from/ knotsBaromVisibWave heightAir tempDewpointWater temp
2017-Oct-06 10:38N 29°47' W 094°02'1 5.9
2017-Oct-06 10:29N 29°47' W 094°01'4 5.2
2017-Oct-06 09:42N 29°50' W 093°57'2 6.0
2017-Oct-06 09:26N 29°52' W 093°56'3 6.3
2017-Oct-06 09:00N 29°54' W 093°54'3 6.2
2017-Oct-06 08:27N 29°56' W 093°52'3 5.3
2017-Oct-06 07:57N 29°58' W 093°50'8 6.4
2017-Oct-06 06:44N 30°03' W 093°43'2 4.8
2017-Oct-06 06:14N 30°04' W 093°40'1 5.6
2017-Oct-06 05:57N 30°04' W 093°39'3 5.2
2017-Oct-06 05:26N 30°04' W 093°35'2 5.1
2017-Oct-06 04:59N 30°04' W 093°33'3 5.2
2017-Oct-06 04:29N 30°04' W 093°30'3 5.0
2017-Oct-06 03:59N 30°04' W 093°27'3 5.2
2017-Oct-06 03:29N 30°04' W 093°24'3 5.2
2017-Oct-06 02:58N 30°04' W 093°21'2 4.7
2017-Oct-06 02:30N 30°06' W 093°19'2 3.0
2017-Oct-06 02:00N 30°05' W 093°18'1 2.4
2017-Oct-06 01:30N 30°04' W 093°16'0 0.0
2017-Oct-06 00:59N 30°05' W 093°16'0 0.0
2017-Oct-06 00:29N 30°04' W 093°16'0 0.5
2017-Oct-06 00:00N 30°04' W 093°16'1 1.4
2017-Oct-05 23:29N 30°04' W 093°16'2 4.4
2017-Oct-05 22:59N 30°02' W 093°15'2 4.5
2017-Oct-05 22:29N 29°60' W 093°13'2 4.9
2017-Oct-05 21:59N 29°58' W 093°11'2 4.9
2017-Oct-05 21:30N 29°56' W 093°10'42 4.6
2017-Oct-05 12:18N 29°51' W 092°21'1 4.8
2017-Oct-05 12:00N 29°50' W 092°20'2 4.4
2017-Oct-05 11:28N 29°49' W 092°17'2 5.0
2017-Oct-05 11:00N 29°48' W 092°15'2 4.8
2017-Oct-05 10:30N 29°47' W 092°12'0 0.6
2017-Oct-05 10:00N 29°47' W 092°12'1 2.0
2017-Oct-05 09:30N 29°47' W 092°11'0 0.4
2017-Oct-05 09:00N 29°47' W 092°11'0 0.0
2017-Oct-05 08:30N 29°47' W 092°11'0 0.8
2017-Oct-05 08:00N 29°47' W 092°10'2 5.0
2017-Oct-05 07:30N 29°47' W 092°08'3 5.3
2017-Oct-05 07:00N 29°48' W 092°05'4 4.9
2017-Oct-05 06:16N 29°49' W 092°01'  
2017-Sep-30 01:59N 30°03' W 093°41'2 4.7
2017-Sep-30 01:29N 30°03' W 093°44'  
Track history (hours):
 
Tides and Currents Weather Stations Pressure Air Temp Water Temp Dewpoint Dewpoint Depression Visibility Wind Speed Wind Dir Waves Ship Positions

Lucas Paul

Owner: Devall Towing Third Generation, sulphur, LA. More information available from US FCC via Universal Licensing System and Coast Guard Vessel Documentation Center.

Last reported at 2017-Oct-06 10:38 UTC. Time now 2017-Oct-19 14:41 UTC.
Position N 29°47' W 094°02'.
Warning: this ship's position is 13 days out of date.

Length 20 m.

Type: Towing. MMSI: 367798350.

Date/timePositionNaut miles runAvg speedWind from/ knotsBaromVisibWave heightAir tempDewpointWater temp
2017-Oct-06 10:38N 29°47' W 094°02'1 5.9
2017-Oct-06 10:29N 29°47' W 094°01'4 5.2
2017-Oct-06 09:42N 29°50' W 093°57'2 6.0
2017-Oct-06 09:26N 29°52' W 093°56'3 6.3
2017-Oct-06 09:00N 29°54' W 093°54'3 6.2
2017-Oct-06 08:27N 29°56' W 093°52'3 5.3
2017-Oct-06 07:57N 29°58' W 093°50'8 6.4
2017-Oct-06 06:44N 30°03' W 093°43'2 4.8
2017-Oct-06 06:14N 30°04' W 093°40'1 5.6
2017-Oct-06 05:57N 30°04' W 093°39'3 5.2
2017-Oct-06 05:26N 30°04' W 093°35'2 5.1
2017-Oct-06 04:59N 30°04' W 093°33'3 5.2
2017-Oct-06 04:29N 30°04' W 093°30'3 5.0
2017-Oct-06 03:59N 30°04' W 093°27'3 5.2
2017-Oct-06 03:29N 30°04' W 093°24'3 5.2
2017-Oct-06 02:58N 30°04' W 093°21'2 4.7
2017-Oct-06 02:30N 30°06' W 093°19'2 3.0
2017-Oct-06 02:00N 30°05' W 093°18'1 2.4
2017-Oct-06 01:30N 30°04' W 093°16'0 0.0
2017-Oct-06 00:59N 30°05' W 093°16'0 0.0
2017-Oct-06 00:29N 30°04' W 093°16'0 0.5
2017-Oct-06 00:00N 30°04' W 093°16'1 1.4
2017-Oct-05 23:29N 30°04' W 093°16'2 4.4
2017-Oct-05 22:59N 30°02' W 093°15'2 4.5
2017-Oct-05 22:29N 29°60' W 093°13'2 4.9
2017-Oct-05 21:59N 29°58' W 093°11'2 4.9
2017-Oct-05 21:30N 29°56' W 093°10'42 4.6
2017-Oct-05 12:18N 29°51' W 092°21'1 4.8
2017-Oct-05 12:00N 29°50' W 092°20'2 4.4
2017-Oct-05 11:28N 29°49' W 092°17'2 5.0
2017-Oct-05 11:00N 29°48' W 092°15'2 4.8
2017-Oct-05 10:30N 29°47' W 092°12'0 0.6
2017-Oct-05 10:00N 29°47' W 092°12'1 2.0
2017-Oct-05 09:30N 29°47' W 092°11'0 0.4
2017-Oct-05 09:00N 29°47' W 092°11'0 0.0
2017-Oct-05 08:30N 29°47' W 092°11'0 0.8
2017-Oct-05 08:00N 29°47' W 092°10'2 5.0
2017-Oct-05 07:30N 29°47' W 092°08'3 5.3
2017-Oct-05 07:00N 29°48' W 092°05'4 4.9
2017-Oct-05 06:16N 29°49' W 092°01'  
2017-Sep-30 01:59N 30°03' W 093°41'2 4.7
2017-Sep-30 01:29N 30°03' W 093°44'  

Dump ship's entire track history